sensor_id;sensor_type;location;lat;lon;timestamp;P1;durP1;ratioP1;P2;durP2;ratioP2
26474;SDS011;14161;52.270;10.334;2022-07-10T00:00:38;2.90;;;0.80;;
26474;SDS011;14161;52.270;10.334;2022-07-10T00:03:04;2.67;;;0.70;;
26474;SDS011;14161;52.270;10.334;2022-07-10T00:05:30;1.40;;;0.65;;
26474;SDS011;14161;52.270;10.334;2022-07-10T00:07:56;3.65;;;0.90;;
26474;SDS011;14161;52.270;10.334;2022-07-10T00:10:21;2.25;;;0.60;;
26474;SDS011;14161;52.270;10.334;2022-07-10T00:12:48;2.80;;;0.77;;
26474;SDS011;14161;52.270;10.334;2022-07-10T00:15:20;5.32;;;1.30;;
26474;SDS011;14161;52.270;10.334;2022-07-10T00:17:46;5.38;;;0.82;;
26474;SDS011;14161;52.270;10.334;2022-07-10T00:20:12;3.83;;;0.70;;
26474;SDS011;14161;52.270;10.334;2022-07-10T00:22:39;3.38;;;0.88;;
26474;SDS011;14161;52.270;10.334;2022-07-10T00:25:05;3.95;;;0.70;;
26474;SDS011;14161;52.270;10.334;2022-07-10T00:27:57;2.97;;;0.55;;
26474;SDS011;14161;52.270;10.334;2022-07-10T00:30:30;2.08;;;0.60;;
26474;SDS011;14161;52.270;10.334;2022-07-10T00:32:56;2.53;;;0.73;;
26474;SDS011;14161;52.270;10.334;2022-07-10T00:35:22;1.13;;;0.50;;
26474;SDS011;14161;52.270;10.334;2022-07-10T00:37:50;1.95;;;0.50;;
26474;SDS011;14161;52.270;10.334;2022-07-10T00:40:15;1.60;;;0.52;;
26474;SDS011;14161;52.270;10.334;2022-07-10T00:42:41;1.48;;;0.50;;
26474;SDS011;14161;52.270;10.334;2022-07-10T00:45:06;0.50;;;0.30;;
26474;SDS011;14161;52.270;10.334;2022-07-10T00:47:33;2.90;;;0.40;;
26474;SDS011;14161;52.270;10.334;2022-07-10T00:49:58;3.60;;;0.70;;
26474;SDS011;14161;52.270;10.334;2022-07-10T00:52:24;7.00;;;0.98;;
26474;SDS011;14161;52.270;10.334;2022-07-10T00:54:53;2.50;;;0.70;;
26474;SDS011;14161;52.270;10.334;2022-07-10T00:57:18;1.38;;;0.50;;
26474;SDS011;14161;52.270;10.334;2022-07-10T00:59:44;3.67;;;1.00;;
26474;SDS011;14161;52.270;10.334;2022-07-10T01:02:13;3.63;;;0.82;;
26474;SDS011;14161;52.270;10.334;2022-07-10T01:04:39;4.20;;;1.02;;
26474;SDS011;14161;52.270;10.334;2022-07-10T01:07:04;4.10;;;0.70;;
26474;SDS011;14161;52.270;10.334;2022-07-10T01:09:33;5.40;;;0.90;;
26474;SDS011;14161;52.270;10.334;2022-07-10T01:12:02;3.95;;;0.80;;
26474;SDS011;14161;52.270;10.334;2022-07-10T01:14:28;2.88;;;0.68;;
26474;SDS011;14161;52.270;10.334;2022-07-10T01:16:58;1.38;;;0.55;;
26474;SDS011;14161;52.270;10.334;2022-07-10T01:19:23;1.92;;;0.60;;
26474;SDS011;14161;52.270;10.334;2022-07-10T01:21:49;3.50;;;0.77;;
26474;SDS011;14161;52.270;10.334;2022-07-10T01:24:15;4.72;;;0.88;;
26474;SDS011;14161;52.270;10.334;2022-07-10T01:26:40;3.13;;;0.70;;
26474;SDS011;14161;52.270;10.334;2022-07-10T01:29:08;2.80;;;0.68;;
26474;SDS011;14161;52.270;10.334;2022-07-10T01:31:34;4.03;;;0.85;;
26474;SDS011;14161;52.270;10.334;2022-07-10T01:34:01;1.55;;;0.68;;
26474;SDS011;14161;52.270;10.334;2022-07-10T01:36:30;2.92;;;1.10;;
26474;SDS011;14161;52.270;10.334;2022-07-10T01:38:56;2.58;;;1.08;;
26474;SDS011;14161;52.270;10.334;2022-07-10T01:41:22;4.63;;;1.15;;
26474;SDS011;14161;52.270;10.334;2022-07-10T01:43:48;2.60;;;0.80;;
26474;SDS011;14161;52.270;10.334;2022-07-10T01:46:14;5.03;;;0.82;;
26474;SDS011;14161;52.270;10.334;2022-07-10T01:48:40;2.47;;;0.60;;
26474;SDS011;14161;52.270;10.334;2022-07-10T01:51:06;3.80;;;1.00;;
26474;SDS011;14161;52.270;10.334;2022-07-10T01:53:33;3.10;;;0.80;;
26474;SDS011;14161;52.270;10.334;2022-07-10T01:55:58;1.45;;;0.55;;
26474;SDS011;14161;52.270;10.334;2022-07-10T01:58:26;2.10;;;0.90;;
26474;SDS011;14161;52.270;10.334;2022-07-10T02:00:52;3.35;;;0.70;;
26474;SDS011;14161;52.270;10.334;2022-07-10T02:03:17;2.05;;;0.40;;
26474;SDS011;14161;52.270;10.334;2022-07-10T02:06:01;2.10;;;0.50;;
26474;SDS011;14161;52.270;10.334;2022-07-10T02:08:27;3.38;;;0.93;;
26474;SDS011;14161;52.270;10.334;2022-07-10T02:10:52;2.70;;;0.57;;
26474;SDS011;14161;52.270;10.334;2022-07-10T02:13:21;6.03;;;0.85;;
26474;SDS011;14161;52.270;10.334;2022-07-10T02:15:55;1.83;;;0.80;;
26474;SDS011;14161;52.270;10.334;2022-07-10T02:18:21;2.95;;;0.90;;
26474;SDS011;14161;52.270;10.334;2022-07-10T02:20:46;4.85;;;0.93;;
26474;SDS011;14161;52.270;10.334;2022-07-10T02:23:12;9.57;;;1.63;;
26474;SDS011;14161;52.270;10.334;2022-07-10T02:25:38;2.95;;;0.73;;
26474;SDS011;14161;52.270;10.334;2022-07-10T02:28:03;3.28;;;0.60;;
26474;SDS011;14161;52.270;10.334;2022-07-10T02:30:29;3.03;;;0.80;;
26474;SDS011;14161;52.270;10.334;2022-07-10T02:32:55;4.13;;;0.70;;
26474;SDS011;14161;52.270;10.334;2022-07-10T02:35:23;3.63;;;0.80;;
26474;SDS011;14161;52.270;10.334;2022-07-10T02:37:54;5.65;;;0.93;;
26474;SDS011;14161;52.270;10.334;2022-07-10T02:40:19;1.92;;;0.60;;
26474;SDS011;14161;52.270;10.334;2022-07-10T02:42:45;3.60;;;0.98;;
26474;SDS011;14161;52.270;10.334;2022-07-10T02:45:10;5.55;;;1.08;;
26474;SDS011;14161;52.270;10.334;2022-07-10T02:47:36;4.57;;;1.00;;
26474;SDS011;14161;52.270;10.334;2022-07-10T02:50:01;4.35;;;1.00;;
26474;SDS011;14161;52.270;10.334;2022-07-10T02:52:27;3.40;;;0.95;;
26474;SDS011;14161;52.270;10.334;2022-07-10T02:54:58;2.50;;;0.95;;
26474;SDS011;14161;52.270;10.334;2022-07-10T02:57:34;4.25;;;0.90;;
26474;SDS011;14161;52.270;10.334;2022-07-10T03:00:00;1.33;;;0.45;;
26474;SDS011;14161;52.270;10.334;2022-07-10T03:02:25;3.00;;;0.82;;
26474;SDS011;14161;52.270;10.334;2022-07-10T03:04:51;3.72;;;0.70;;
26474;SDS011;14161;52.270;10.334;2022-07-10T03:07:17;3.05;;;0.77;;
26474;SDS011;14161;52.270;10.334;2022-07-10T03:09:43;1.00;;;0.52;;
26474;SDS011;14161;52.270;10.334;2022-07-10T03:12:08;2.88;;;0.65;;
26474;SDS011;14161;52.270;10.334;2022-07-10T03:14:34;3.03;;;0.88;;
26474;SDS011;14161;52.270;10.334;2022-07-10T03:16:59;3.33;;;0.50;;
26474;SDS011;14161;52.270;10.334;2022-07-10T03:19:25;4.03;;;0.80;;
26474;SDS011;14161;52.270;10.334;2022-07-10T03:21:50;3.80;;;0.90;;
26474;SDS011;14161;52.270;10.334;2022-07-10T03:24:16;3.50;;;0.65;;
26474;SDS011;14161;52.270;10.334;2022-07-10T03:26:41;2.72;;;0.65;;
26474;SDS011;14161;52.270;10.334;2022-07-10T03:29:10;2.38;;;0.82;;
26474;SDS011;14161;52.270;10.334;2022-07-10T03:31:38;5.00;;;0.68;;
26474;SDS011;14161;52.270;10.334;2022-07-10T03:34:04;4.53;;;1.02;;
26474;SDS011;14161;52.270;10.334;2022-07-10T03:36:37;5.50;;;0.80;;
26474;SDS011;14161;52.270;10.334;2022-07-10T03:39:23;2.28;;;0.55;;
26474;SDS011;14161;52.270;10.334;2022-07-10T03:41:48;3.67;;;0.75;;
26474;SDS011;14161;52.270;10.334;2022-07-10T03:44:16;3.58;;;1.10;;
26474;SDS011;14161;52.270;10.334;2022-07-10T03:46:42;4.38;;;0.80;;
26474;SDS011;14161;52.270;10.334;2022-07-10T03:49:08;3.80;;;0.60;;
26474;SDS011;14161;52.270;10.334;2022-07-10T03:51:42;3.05;;;0.60;;
26474;SDS011;14161;52.270;10.334;2022-07-10T03:54:08;3.30;;;0.68;;
26474;SDS011;14161;52.270;10.334;2022-07-10T03:56:34;2.85;;;0.75;;
26474;SDS011;14161;52.270;10.334;2022-07-10T03:59:18;3.20;;;0.70;;
26474;SDS011;14161;52.270;10.334;2022-07-10T04:01:43;2.40;;;0.70;;
26474;SDS011;14161;52.270;10.334;2022-07-10T04:04:09;3.53;;;0.50;;
26474;SDS011;14161;52.270;10.334;2022-07-10T04:06:43;3.35;;;0.65;;
26474;SDS011;14161;52.270;10.334;2022-07-10T04:09:27;3.10;;;0.80;;
26474;SDS011;14161;52.270;10.334;2022-07-10T04:11:52;3.20;;;0.60;;
26474;SDS011;14161;52.270;10.334;2022-07-10T04:14:18;1.77;;;0.60;;
26474;SDS011;14161;52.270;10.334;2022-07-10T04:16:44;4.75;;;0.88;;
26474;SDS011;14161;52.270;10.334;2022-07-10T04:19:10;1.95;;;0.63;;
26474;SDS011;14161;52.270;10.334;2022-07-10T04:21:35;4.38;;;0.57;;
26474;SDS011;14161;52.270;10.334;2022-07-10T04:24:02;2.00;;;0.65;;
26474;SDS011;14161;52.270;10.334;2022-07-10T04:26:28;3.88;;;1.02;;
26474;SDS011;14161;52.270;10.334;2022-07-10T04:28:54;3.58;;;1.30;;
26474;SDS011;14161;52.270;10.334;2022-07-10T04:31:28;4.18;;;0.75;;
26474;SDS011;14161;52.270;10.334;2022-07-10T04:33:54;2.33;;;0.80;;
26474;SDS011;14161;52.270;10.334;2022-07-10T04:36:22;4.47;;;0.63;;
26474;SDS011;14161;52.270;10.334;2022-07-10T04:38:51;2.83;;;1.10;;
26474;SDS011;14161;52.270;10.334;2022-07-10T04:41:16;1.88;;;0.55;;
26474;SDS011;14161;52.270;10.334;2022-07-10T04:43:42;2.38;;;0.63;;
26474;SDS011;14161;52.270;10.334;2022-07-10T04:46:10;1.48;;;0.50;;
26474;SDS011;14161;52.270;10.334;2022-07-10T04:48:39;3.25;;;0.65;;
26474;SDS011;14161;52.270;10.334;2022-07-10T04:51:05;2.72;;;0.73;;
26474;SDS011;14161;52.270;10.334;2022-07-10T04:53:30;2.25;;;0.75;;
26474;SDS011;14161;52.270;10.334;2022-07-10T04:55:56;2.10;;;0.68;;
26474;SDS011;14161;52.270;10.334;2022-07-10T04:58:21;3.70;;;0.70;;
26474;SDS011;14161;52.270;10.334;2022-07-10T07:00:39;4.00;;;1.05;;
26474;SDS011;14161;52.270;10.334;2022-07-10T07:03:11;3.97;;;1.23;;
26474;SDS011;14161;52.270;10.334;2022-07-10T07:05:54;6.18;;;1.60;;
26474;SDS011;14161;52.270;10.334;2022-07-10T07:08:35;8.70;;;1.65;;
26474;SDS011;14161;52.270;10.334;2022-07-10T07:15:03;6.18;;;1.65;;
26474;SDS011;14161;52.270;10.334;2022-07-10T07:17:35;4.47;;;1.30;;
26474;SDS011;14161;52.270;10.334;2022-07-10T07:21:07;4.40;;;1.40;;
26474;SDS011;14161;52.270;10.334;2022-07-10T07:23:51;4.63;;;1.10;;
26474;SDS011;14161;52.270;10.334;2022-07-10T07:26:16;4.78;;;1.00;;
26474;SDS011;14161;52.270;10.334;2022-07-10T07:28:42;3.30;;;1.25;;
26474;SDS011;14161;52.270;10.334;2022-07-10T07:31:10;3.90;;;1.20;;
26474;SDS011;14161;52.270;10.334;2022-07-10T07:33:36;8.35;;;1.00;;
26474;SDS011;14161;52.270;10.334;2022-07-10T07:36:01;5.85;;;1.10;;
26474;SDS011;14161;52.270;10.334;2022-07-10T07:38:27;6.50;;;1.38;;
26474;SDS011;14161;52.270;10.334;2022-07-10T07:40:52;7.85;;;1.05;;
26474;SDS011;14161;52.270;10.334;2022-07-10T07:43:18;6.13;;;1.10;;
26474;SDS011;14161;52.270;10.334;2022-07-10T07:45:43;3.05;;;1.02;;
26474;SDS011;14161;52.270;10.334;2022-07-10T07:48:09;6.95;;;1.50;;
26474;SDS011;14161;52.270;10.334;2022-07-10T07:50:39;3.78;;;1.10;;
26474;SDS011;14161;52.270;10.334;2022-07-10T07:53:05;6.95;;;1.48;;
26474;SDS011;14161;52.270;10.334;2022-07-10T07:55:30;6.13;;;1.17;;
26474;SDS011;14161;52.270;10.334;2022-07-10T08:51:58;4.85;;;1.50;;
26474;SDS011;14161;52.270;10.334;2022-07-10T08:54:28;4.40;;;1.23;;
26474;SDS011;14161;52.270;10.334;2022-07-10T08:57:03;4.30;;;1.00;;
26474;SDS011;14161;52.270;10.334;2022-07-10T08:59:45;6.18;;;1.70;;
26474;SDS011;14161;52.270;10.334;2022-07-10T09:02:11;4.32;;;1.20;;
26474;SDS011;14161;52.270;10.334;2022-07-10T09:04:36;6.00;;;1.40;;
26474;SDS011;14161;52.270;10.334;2022-07-10T09:07:08;5.60;;;1.30;;
26474;SDS011;14161;52.270;10.334;2022-07-10T09:09:53;8.18;;;1.30;;
26474;SDS011;14161;52.270;10.334;2022-07-10T09:12:23;5.03;;;1.08;;
26474;SDS011;14161;52.270;10.334;2022-07-10T09:15:06;12.60;;;1.52;;
26474;SDS011;14161;52.270;10.334;2022-07-10T09:17:54;3.58;;;1.23;;
26474;SDS011;14161;52.270;10.334;2022-07-10T09:20:40;4.28;;;1.20;;
26474;SDS011;14161;52.270;10.334;2022-07-10T09:25:44;5.82;;;1.85;;
26474;SDS011;14161;52.270;10.334;2022-07-10T09:28:10;5.57;;;1.25;;
26474;SDS011;14161;52.270;10.334;2022-07-10T09:30:41;4.13;;;1.20;;
26474;SDS011;14161;52.270;10.334;2022-07-10T09:33:17;6.50;;;1.35;;
26474;SDS011;14161;52.270;10.334;2022-07-10T09:36:05;4.35;;;1.02;;
26474;SDS011;14161;52.270;10.334;2022-07-10T09:43:50;4.60;;;1.17;;
26474;SDS011;14161;52.270;10.334;2022-07-10T09:53:03;5.43;;;1.65;;
26474;SDS011;14161;52.270;10.334;2022-07-10T09:55:32;4.65;;;1.02;;
26474;SDS011;14161;52.270;10.334;2022-07-10T09:58:00;8.85;;;1.40;;
26474;SDS011;14161;52.270;10.334;2022-07-10T10:00:34;5.38;;;1.63;;
26474;SDS011;14161;52.270;10.334;2022-07-10T10:03:02;4.95;;;1.20;;
26474;SDS011;14161;52.270;10.334;2022-07-10T10:08:22;4.65;;;1.20;;
26474;SDS011;14161;52.270;10.334;2022-07-10T10:10:50;3.55;;;1.08;;
26474;SDS011;14161;52.270;10.334;2022-07-10T10:13:17;5.15;;;1.40;;
26474;SDS011;14161;52.270;10.334;2022-07-10T10:15:45;3.72;;;1.08;;
26474;SDS011;14161;52.270;10.334;2022-07-10T10:18:12;4.93;;;1.17;;
26474;SDS011;14161;52.270;10.334;2022-07-10T10:20:38;5.38;;;1.10;;
26474;SDS011;14161;52.270;10.334;2022-07-10T10:23:15;4.45;;;1.00;;
26474;SDS011;14161;52.270;10.334;2022-07-10T10:25:43;5.18;;;1.13;;
26474;SDS011;14161;52.270;10.334;2022-07-10T10:28:09;7.22;;;1.15;;
26474;SDS011;14161;52.270;10.334;2022-07-10T10:30:36;5.10;;;1.48;;
26474;SDS011;14161;52.270;10.334;2022-07-10T10:33:03;5.63;;;1.20;;
26474;SDS011;14161;52.270;10.334;2022-07-10T10:35:44;5.05;;;1.23;;
26474;SDS011;14161;52.270;10.334;2022-07-10T10:38:13;5.93;;;1.25;;
26474;SDS011;14161;52.270;10.334;2022-07-10T10:40:40;7.00;;;1.25;;
26474;SDS011;14161;52.270;10.334;2022-07-10T10:43:16;8.77;;;2.22;;
26474;SDS011;14161;52.270;10.334;2022-07-10T10:45:43;5.53;;;1.20;;
26474;SDS011;14161;52.270;10.334;2022-07-10T10:48:13;7.78;;;1.50;;
26474;SDS011;14161;52.270;10.334;2022-07-10T10:50:40;8.48;;;1.80;;
26474;SDS011;14161;52.270;10.334;2022-07-10T10:56:21;4.32;;;1.85;;
26474;SDS011;14161;52.270;10.334;2022-07-10T10:58:40;5.45;;;1.23;;
26474;SDS011;14161;52.270;10.334;2022-07-10T11:06:39;4.57;;;1.00;;
26474;SDS011;14161;52.270;10.334;2022-07-10T11:12:07;14.18;;;1.38;;
26474;SDS011;14161;52.270;10.334;2022-07-10T11:14:40;8.10;;;1.50;;
26474;SDS011;14161;52.270;10.334;2022-07-10T11:17:10;5.05;;;1.73;;
26474;SDS011;14161;52.270;10.334;2022-07-10T11:19:35;4.47;;;1.50;;
26474;SDS011;14161;52.270;10.334;2022-07-10T11:30:21;2.53;;;0.77;;
26474;SDS011;14161;52.270;10.334;2022-07-10T11:32:46;5.88;;;1.67;;
26474;SDS011;14161;52.270;10.334;2022-07-10T11:35:13;8.13;;;1.38;;
26474;SDS011;14161;52.270;10.334;2022-07-10T11:37:48;7.78;;;1.35;;
26474;SDS011;14161;52.270;10.334;2022-07-10T11:40:15;8.25;;;1.40;;
26474;SDS011;14161;52.270;10.334;2022-07-10T11:42:55;5.65;;;1.40;;
26474;SDS011;14161;52.270;10.334;2022-07-10T11:45:28;4.80;;;1.08;;
26474;SDS011;14161;52.270;10.334;2022-07-10T11:47:55;5.18;;;1.02;;
26474;SDS011;14161;52.270;10.334;2022-07-10T11:50:21;5.20;;;1.10;;
26474;SDS011;14161;52.270;10.334;2022-07-10T11:52:47;4.03;;;1.13;;
26474;SDS011;14161;52.270;10.334;2022-07-10T11:55:16;5.43;;;1.15;;
26474;SDS011;14161;52.270;10.334;2022-07-10T11:57:42;5.22;;;1.65;;
26474;SDS011;14161;52.270;10.334;2022-07-10T12:00:23;7.70;;;1.35;;
26474;SDS011;14161;52.270;10.334;2022-07-10T12:02:50;4.75;;;1.20;;
26474;SDS011;14161;52.270;10.334;2022-07-10T12:05:36;11.05;;;1.42;;
26474;SDS011;14161;52.270;10.334;2022-07-10T12:08:03;3.63;;;1.20;;
26474;SDS011;14161;52.270;10.334;2022-07-10T12:10:29;4.38;;;1.40;;
26474;SDS011;14161;52.270;10.334;2022-07-10T12:13:09;2.83;;;0.95;;
26474;SDS011;14161;52.270;10.334;2022-07-10T12:18:06;6.13;;;1.10;;
26474;SDS011;14161;52.270;10.334;2022-07-10T12:20:34;5.65;;;1.25;;
26474;SDS011;14161;52.270;10.334;2022-07-10T12:23:02;5.85;;;1.10;;
26474;SDS011;14161;52.270;10.334;2022-07-10T12:25:28;5.57;;;1.23;;
26474;SDS011;14161;52.270;10.334;2022-07-10T12:27:58;5.53;;;1.25;;
26474;SDS011;14161;52.270;10.334;2022-07-10T12:30:40;7.25;;;1.30;;
26474;SDS011;14161;52.270;10.334;2022-07-10T12:33:19;5.80;;;1.17;;
26474;SDS011;14161;52.270;10.334;2022-07-10T12:40:47;4.60;;;1.10;;
26474;SDS011;14161;52.270;10.334;2022-07-10T12:43:23;4.97;;;1.00;;
26474;SDS011;14161;52.270;10.334;2022-07-10T12:51:27;4.20;;;1.27;;
26474;SDS011;14161;52.270;10.334;2022-07-10T12:53:54;3.20;;;1.02;;
26474;SDS011;14161;52.270;10.334;2022-07-10T12:56:36;3.92;;;0.90;;
26474;SDS011;14161;52.270;10.334;2022-07-10T12:59:12;4.40;;;1.23;;
26474;SDS011;14161;52.270;10.334;2022-07-10T13:01:43;2.58;;;1.00;;
26474;SDS011;14161;52.270;10.334;2022-07-10T13:04:09;3.97;;;1.40;;
26474;SDS011;14161;52.270;10.334;2022-07-10T13:06:35;3.25;;;1.08;;
26474;SDS011;14161;52.270;10.334;2022-07-10T13:09:02;3.10;;;0.80;;
26474;SDS011;14161;52.270;10.334;2022-07-10T13:11:28;5.20;;;1.15;;
26474;SDS011;14161;52.270;10.334;2022-07-10T13:13:54;4.75;;;1.42;;
26474;SDS011;14161;52.270;10.334;2022-07-10T13:16:20;4.40;;;1.30;;
26474;SDS011;14161;52.270;10.334;2022-07-10T13:18:46;3.47;;;1.05;;
26474;SDS011;14161;52.270;10.334;2022-07-10T13:21:12;4.47;;;1.25;;
26474;SDS011;14161;52.270;10.334;2022-07-10T13:23:38;4.53;;;1.00;;
26474;SDS011;14161;52.270;10.334;2022-07-10T13:26:04;5.68;;;1.17;;
26474;SDS011;14161;52.270;10.334;2022-07-10T13:28:32;4.25;;;1.40;;
26474;SDS011;14161;52.270;10.334;2022-07-10T13:30:58;6.53;;;1.13;;
26474;SDS011;14161;52.270;10.334;2022-07-10T13:33:24;4.55;;;1.20;;
26474;SDS011;14161;52.270;10.334;2022-07-10T13:35:49;5.65;;;1.67;;
26474;SDS011;14161;52.270;10.334;2022-07-10T13:38:15;5.55;;;1.35;;
26474;SDS011;14161;52.270;10.334;2022-07-10T13:40:45;4.65;;;1.17;;
26474;SDS011;14161;52.270;10.334;2022-07-10T13:43:12;4.25;;;1.42;;
26474;SDS011;14161;52.270;10.334;2022-07-10T13:45:38;3.97;;;1.63;;
26474;SDS011;14161;52.270;10.334;2022-07-10T13:48:10;4.82;;;1.15;;
26474;SDS011;14161;52.270;10.334;2022-07-10T13:50:37;8.02;;;1.48;;
26474;SDS011;14161;52.270;10.334;2022-07-10T13:53:03;4.85;;;1.10;;
26474;SDS011;14161;52.270;10.334;2022-07-10T13:55:29;4.68;;;1.10;;
26474;SDS011;14161;52.270;10.334;2022-07-10T13:57:54;3.97;;;1.00;;
26474;SDS011;14161;52.270;10.334;2022-07-10T14:00:20;3.42;;;1.05;;
26474;SDS011;14161;52.270;10.334;2022-07-10T14:02:45;5.57;;;1.38;;
26474;SDS011;14161;52.270;10.334;2022-07-10T14:05:11;6.10;;;0.95;;
26474;SDS011;14161;52.270;10.334;2022-07-10T14:07:37;3.20;;;0.90;;
26474;SDS011;14161;52.270;10.334;2022-07-10T14:10:03;3.33;;;1.05;;
26474;SDS011;14161;52.270;10.334;2022-07-10T14:12:29;4.40;;;1.25;;
26474;SDS011;14161;52.270;10.334;2022-07-10T14:14:55;3.67;;;1.10;;
26474;SDS011;14161;52.270;10.334;2022-07-10T14:17:20;3.88;;;1.40;;
26474;SDS011;14161;52.270;10.334;2022-07-10T14:19:46;2.80;;;0.90;;
26474;SDS011;14161;52.270;10.334;2022-07-10T14:22:11;1.15;;;0.60;;
26474;SDS011;14161;52.270;10.334;2022-07-10T14:24:37;3.80;;;0.80;;
26474;SDS011;14161;52.270;10.334;2022-07-10T14:27:02;4.57;;;1.00;;
26474;SDS011;14161;52.270;10.334;2022-07-10T14:29:28;4.93;;;1.02;;
26474;SDS011;14161;52.270;10.334;2022-07-10T14:31:54;3.13;;;0.93;;
26474;SDS011;14161;52.270;10.334;2022-07-10T14:34:23;2.45;;;1.00;;
26474;SDS011;14161;52.270;10.334;2022-07-10T14:36:50;3.35;;;0.93;;
26474;SDS011;14161;52.270;10.334;2022-07-10T14:39:16;2.60;;;0.85;;
26474;SDS011;14161;52.270;10.334;2022-07-10T14:41:41;3.00;;;0.70;;
26474;SDS011;14161;52.270;10.334;2022-07-10T14:44:07;3.40;;;1.00;;
26474;SDS011;14161;52.270;10.334;2022-07-10T14:46:32;4.78;;;1.08;;
26474;SDS011;14161;52.270;10.334;2022-07-10T14:48:58;2.58;;;1.08;;
26474;SDS011;14161;52.270;10.334;2022-07-10T14:51:24;2.08;;;0.90;;
26474;SDS011;14161;52.270;10.334;2022-07-10T14:53:50;3.97;;;1.20;;
26474;SDS011;14161;52.270;10.334;2022-07-10T14:56:16;5.53;;;1.25;;
26474;SDS011;14161;52.270;10.334;2022-07-10T14:58:42;2.60;;;0.95;;
26474;SDS011;14161;52.270;10.334;2022-07-10T15:01:08;2.50;;;0.88;;
26474;SDS011;14161;52.270;10.334;2022-07-10T15:03:34;5.25;;;0.93;;
26474;SDS011;14161;52.270;10.334;2022-07-10T15:05:59;4.03;;;1.10;;
26474;SDS011;14161;52.270;10.334;2022-07-10T15:08:25;5.57;;;1.05;;
26474;SDS011;14161;52.270;10.334;2022-07-10T15:10:50;7.88;;;1.38;;
26474;SDS011;14161;52.270;10.334;2022-07-10T15:13:16;4.22;;;1.00;;
26474;SDS011;14161;52.270;10.334;2022-07-10T15:15:59;5.45;;;1.50;;
26474;SDS011;14161;52.270;10.334;2022-07-10T15:18:39;3.88;;;1.00;;
26474;SDS011;14161;52.270;10.334;2022-07-10T15:21:04;3.20;;;1.00;;
26474;SDS011;14161;52.270;10.334;2022-07-10T15:23:30;10.65;;;1.75;;
26474;SDS011;14161;52.270;10.334;2022-07-10T15:25:55;10.13;;;1.15;;
26474;SDS011;14161;52.270;10.334;2022-07-10T15:28:21;3.00;;;1.15;;
26474;SDS011;14161;52.270;10.334;2022-07-10T15:30:47;4.95;;;1.02;;
26474;SDS011;14161;52.270;10.334;2022-07-10T15:33:12;3.53;;;0.85;;
26474;SDS011;14161;52.270;10.334;2022-07-10T15:35:38;6.85;;;0.98;;
26474;SDS011;14161;52.270;10.334;2022-07-10T15:38:04;2.60;;;0.70;;
26474;SDS011;14161;52.270;10.334;2022-07-10T15:40:30;3.10;;;1.10;;
26474;SDS011;14161;52.270;10.334;2022-07-10T15:42:56;2.88;;;1.05;;
26474;SDS011;14161;52.270;10.334;2022-07-10T15:45:22;2.95;;;0.90;;
26474;SDS011;14161;52.270;10.334;2022-07-10T15:47:48;2.35;;;0.90;;
26474;SDS011;14161;52.270;10.334;2022-07-10T15:50:14;2.25;;;0.85;;
26474;SDS011;14161;52.270;10.334;2022-07-10T15:52:39;4.43;;;1.23;;
26474;SDS011;14161;52.270;10.334;2022-07-10T15:55:05;4.18;;;1.15;;
26474;SDS011;14161;52.270;10.334;2022-07-10T15:57:31;6.10;;;1.00;;
26474;SDS011;14161;52.270;10.334;2022-07-10T15:59:56;2.60;;;0.98;;
26474;SDS011;14161;52.270;10.334;2022-07-10T16:02:22;4.40;;;1.25;;
26474;SDS011;14161;52.270;10.334;2022-07-10T16:04:47;3.38;;;0.90;;
26474;SDS011;14161;52.270;10.334;2022-07-10T16:07:13;2.67;;;0.80;;
26474;SDS011;14161;52.270;10.334;2022-07-10T16:09:38;1.98;;;0.75;;
26474;SDS011;14161;52.270;10.334;2022-07-10T16:12:04;2.15;;;0.70;;
26474;SDS011;14161;52.270;10.334;2022-07-10T16:14:30;2.40;;;0.88;;
26474;SDS011;14161;52.270;10.334;2022-07-10T16:16:56;1.17;;;0.60;;
26474;SDS011;14161;52.270;10.334;2022-07-10T16:19:22;1.20;;;0.60;;
26474;SDS011;14161;52.270;10.334;2022-07-10T16:21:47;5.15;;;0.70;;
26474;SDS011;14161;52.270;10.334;2022-07-10T16:24:13;2.47;;;0.85;;
26474;SDS011;14161;52.270;10.334;2022-07-10T16:26:38;2.35;;;0.52;;
26474;SDS011;14161;52.270;10.334;2022-07-10T16:29:04;1.80;;;0.63;;
26474;SDS011;14161;52.270;10.334;2022-07-10T16:31:29;1.23;;;0.47;;
26474;SDS011;14161;52.270;10.334;2022-07-10T16:33:56;2.72;;;0.60;;
26474;SDS011;14161;52.270;10.334;2022-07-10T16:36:21;1.98;;;0.60;;
26474;SDS011;14161;52.270;10.334;2022-07-10T16:38:47;1.38;;;0.52;;
26474;SDS011;14161;52.270;10.334;2022-07-10T16:41:14;2.00;;;0.45;;
26474;SDS011;14161;52.270;10.334;2022-07-10T16:43:39;0.93;;;0.50;;
26474;SDS011;14161;52.270;10.334;2022-07-10T16:46:05;1.33;;;0.50;;
26474;SDS011;14161;52.270;10.334;2022-07-10T16:48:31;1.50;;;0.50;;
26474;SDS011;14161;52.270;10.334;2022-07-10T16:50:57;1.02;;;0.47;;
26474;SDS011;14161;52.270;10.334;2022-07-10T16:53:24;2.50;;;0.50;;
26474;SDS011;14161;52.270;10.334;2022-07-10T16:55:51;0.70;;;0.45;;
26474;SDS011;14161;52.270;10.334;2022-07-10T16:58:17;2.42;;;0.65;;
26474;SDS011;14161;52.270;10.334;2022-07-10T17:00:42;0.80;;;0.40;;
26474;SDS011;14161;52.270;10.334;2022-07-10T17:03:08;1.40;;;0.50;;
26474;SDS011;14161;52.270;10.334;2022-07-10T17:05:33;1.65;;;0.63;;
26474;SDS011;14161;52.270;10.334;2022-07-10T17:08:02;2.25;;;0.70;;
26474;SDS011;14161;52.270;10.334;2022-07-10T17:10:27;2.45;;;0.70;;
26474;SDS011;14161;52.270;10.334;2022-07-10T17:12:53;3.95;;;0.75;;
26474;SDS011;14161;52.270;10.334;2022-07-10T17:15:18;1.60;;;0.43;;
26474;SDS011;14161;52.270;10.334;2022-07-10T17:17:46;1.02;;;0.52;;
26474;SDS011;14161;52.270;10.334;2022-07-10T17:20:15;2.60;;;0.70;;
26474;SDS011;14161;52.270;10.334;2022-07-10T17:22:40;1.08;;;0.40;;
26474;SDS011;14161;52.270;10.334;2022-07-10T17:25:12;0.88;;;0.43;;
26474;SDS011;14161;52.270;10.334;2022-07-10T17:27:39;1.67;;;0.60;;
26474;SDS011;14161;52.270;10.334;2022-07-10T17:30:25;1.17;;;0.60;;
26474;SDS011;14161;52.270;10.334;2022-07-10T17:32:56;1.33;;;0.55;;
26474;SDS011;14161;52.270;10.334;2022-07-10T17:35:22;2.42;;;0.50;;
26474;SDS011;14161;52.270;10.334;2022-07-10T17:37:47;1.08;;;0.63;;
26474;SDS011;14161;52.270;10.334;2022-07-10T17:40:13;1.23;;;0.60;;
26474;SDS011;14161;52.270;10.334;2022-07-10T17:42:38;1.95;;;0.57;;
26474;SDS011;14161;52.270;10.334;2022-07-10T17:45:07;7.32;;;0.90;;
26474;SDS011;14161;52.270;10.334;2022-07-10T17:47:33;5.22;;;0.85;;
26474;SDS011;14161;52.270;10.334;2022-07-10T17:49:59;0.60;;;0.30;;
26474;SDS011;14161;52.270;10.334;2022-07-10T17:52:24;1.52;;;0.60;;
26474;SDS011;14161;52.270;10.334;2022-07-10T17:54:50;1.58;;;0.43;;
26474;SDS011;14161;52.270;10.334;2022-07-10T17:57:16;3.90;;;0.82;;
26474;SDS011;14161;52.270;10.334;2022-07-10T17:59:41;3.63;;;0.90;;
26474;SDS011;14161;52.270;10.334;2022-07-10T18:02:07;4.20;;;0.70;;
26474;SDS011;14161;52.270;10.334;2022-07-10T18:04:32;1.50;;;0.60;;
26474;SDS011;14161;52.270;10.334;2022-07-10T18:06:58;2.35;;;0.70;;
26474;SDS011;14161;52.270;10.334;2022-07-10T18:09:24;3.28;;;0.77;;
26474;SDS011;14161;52.270;10.334;2022-07-10T18:11:49;2.97;;;0.70;;
26474;SDS011;14161;52.270;10.334;2022-07-10T18:14:15;3.88;;;0.63;;
26474;SDS011;14161;52.270;10.334;2022-07-10T18:16:41;2.53;;;0.65;;
26474;SDS011;14161;52.270;10.334;2022-07-10T18:19:07;1.63;;;0.52;;
26474;SDS011;14161;52.270;10.334;2022-07-10T18:21:32;2.33;;;0.70;;
26474;SDS011;14161;52.270;10.334;2022-07-10T18:23:58;4.78;;;0.82;;
26474;SDS011;14161;52.270;10.334;2022-07-10T18:26:27;1.83;;;0.60;;